createdAt,value
2018-03-15T00:00:53.254Z,4.28
2018-03-15T00:01:59.709Z,4.28
2018-03-15T00:03:03.741Z,4.28
2018-03-15T00:04:07.159Z,4.28
2018-03-15T00:05:10.658Z,4.29
2018-03-15T00:06:14.117Z,4.28
2018-03-15T00:07:17.332Z,4.32
2018-03-15T00:08:20.772Z,4.34
2018-03-15T00:09:24.618Z,4.35
2018-03-15T00:10:28.025Z,4.32
2018-03-15T00:11:31.414Z,4.32
2018-03-15T00:12:34.840Z,4.31
2018-03-15T00:13:38.244Z,4.33
2018-03-15T00:14:41.733Z,4.34
2018-03-15T00:15:45.474Z,4.35
2018-03-15T00:16:48.960Z,4.35
2018-03-15T00:17:52.393Z,4.33
2018-03-15T00:18:55.841Z,4.28
2018-03-15T00:19:59.196Z,4.26
2018-03-15T00:21:02.495Z,4.27
2018-03-15T00:22:06.337Z,4.20
2018-03-15T00:23:09.780Z,4.25
2018-03-15T00:24:13.414Z,4.29
2018-03-15T00:25:16.919Z,4.31
2018-03-15T00:26:20.385Z,4.36
2018-03-15T00:27:23.931Z,4.38
2018-03-15T00:28:27.642Z,4.34
2018-03-15T00:29:31.019Z,4.30
2018-03-15T00:30:34.424Z,4.29
2018-03-15T00:31:37.862Z,4.30
2018-03-15T00:32:41.308Z,4.33
2018-03-15T00:33:44.674Z,4.34
2018-03-15T00:34:48.597Z,4.31
2018-03-15T00:35:52.135Z,4.34
2018-03-15T00:36:55.589Z,4.33
2018-03-15T00:37:58.933Z,4.29
2018-03-15T00:39:02.352Z,4.28
2018-03-15T00:40:05.808Z,4.27
2018-03-15T00:41:09.553Z,4.23
2018-03-15T00:42:13.099Z,4.20
2018-03-15T00:43:16.781Z,4.21
2018-03-15T00:44:20.406Z,4.20
2018-03-15T00:45:23.963Z,4.22
2018-03-15T00:46:27.359Z,4.25
2018-03-15T00:47:30.805Z,4.24
2018-03-15T00:48:34.330Z,4.28
2018-03-15T00:49:37.833Z,4.28
2018-03-15T00:50:41.221Z,4.28
2018-03-15T00:51:44.490Z,4.20
2018-03-15T00:52:48.137Z,4.14
2018-03-15T00:53:51.423Z,4.14
2018-03-15T00:54:54.946Z,4.19
2018-03-15T00:55:58.508Z,4.20
2018-03-15T00:57:02.178Z,4.18
2018-03-15T00:58:05.861Z,4.21
2018-03-15T00:59:09.833Z,4.18
2018-03-15T01:00:13.324Z,4.13
2018-03-15T01:01:16.540Z,4.11
2018-03-15T01:02:20.016Z,4.18
2018-03-15T01:03:23.557Z,4.17
2018-03-15T01:04:27.070Z,4.17
2018-03-15T01:05:30.872Z,4.15
2018-03-15T01:06:34.405Z,4.17
2018-03-15T01:07:37.881Z,4.14
2018-03-15T01:08:41.433Z,4.10
2018-03-15T01:09:44.960Z,4.11
2018-03-15T01:10:48.422Z,4.09
2018-03-15T01:11:51.882Z,4.07
2018-03-15T01:12:55.324Z,4.06
2018-03-15T01:13:58.940Z,4.03
2018-03-15T01:15:02.634Z,3.98
2018-03-15T01:16:06.288Z,3.98
2018-03-15T01:17:10.036Z,4.01
2018-03-15T01:18:14.130Z,4.02
2018-03-15T01:19:17.717Z,3.98
2018-03-15T01:20:21.313Z,3.98
2018-03-15T01:21:24.973Z,3.95
2018-03-15T01:22:28.633Z,3.92
2018-03-15T01:23:32.551Z,3.93
2018-03-15T01:24:36.016Z,3.94
2018-03-15T01:25:39.811Z,3.98
2018-03-15T01:26:43.350Z,3.98
2018-03-15T01:27:46.988Z,3.98
2018-03-15T01:28:50.694Z,3.98
2018-03-15T01:29:54.652Z,3.90
2018-03-15T01:30:58.356Z,3.93
2018-03-15T01:32:01.901Z,3.94
2018-03-15T01:33:05.429Z,3.96
2018-03-15T01:34:08.980Z,3.92
2018-03-15T01:35:12.588Z,3.93
2018-03-15T01:36:17.007Z,3.94
2018-03-15T01:37:20.699Z,3.93
2018-03-15T01:38:24.550Z,3.92
2018-03-15T01:39:28.198Z,3.92
2018-03-15T01:40:31.762Z,3.91
2018-03-15T01:41:35.544Z,3.94
2018-03-15T01:42:39.657Z,3.90
2018-03-15T01:43:43.219Z,3.89
2018-03-15T01:44:46.756Z,3.87
2018-03-15T01:45:50.401Z,3.85
2018-03-15T01:46:53.935Z,3.86
2018-03-15T01:47:57.565Z,3.81
2018-03-15T01:49:01.543Z,3.79
2018-03-15T01:50:05.101Z,3.81
2018-03-15T01:51:08.723Z,3.91
2018-03-15T01:52:12.568Z,3.91
2018-03-15T01:53:16.238Z,3.88
2018-03-15T01:54:19.711Z,3.87
2018-03-15T01:55:23.585Z,3.90
2018-03-15T01:56:27.229Z,3.86
2018-03-15T01:57:30.821Z,3.85
2018-03-15T01:58:34.478Z,3.82
2018-03-15T01:59:38.032Z,3.81
2018-03-15T02:00:41.637Z,3.78
2018-03-15T02:01:45.911Z,3.82
2018-03-15T02:02:49.654Z,3.81
2018-03-15T02:03:53.168Z,3.80
2018-03-15T02:04:56.473Z,3.78
2018-03-15T02:06:00.039Z,3.80
2018-03-15T02:07:03.737Z,3.80
2018-03-15T02:08:07.867Z,3.79
2018-03-15T02:09:11.694Z,3.79
2018-03-15T02:10:15.178Z,3.83
2018-03-15T02:11:18.726Z,3.87
2018-03-15T02:12:22.396Z,3.86
2018-03-15T02:13:25.774Z,3.83
2018-03-15T02:14:29.973Z,3.80
2018-03-15T02:15:33.414Z,3.80
2018-03-15T02:16:37.080Z,3.75
2018-03-15T02:17:40.428Z,3.75
2018-03-15T02:18:44.041Z,3.76
2018-03-15T02:19:47.484Z,3.78
2018-03-15T02:20:51.309Z,3.79
2018-03-15T02:21:54.945Z,3.80
2018-03-15T02:22:58.584Z,3.78
2018-03-15T02:24:02.138Z,3.77
2018-03-15T02:25:05.813Z,3.73
2018-03-15T02:26:09.252Z,3.72
2018-03-15T02:27:13.371Z,3.73
2018-03-15T02:28:16.684Z,3.73
2018-03-15T02:29:20.282Z,3.76
2018-03-15T02:30:23.724Z,3.76
2018-03-15T02:31:27.388Z,3.76
2018-03-15T02:32:31.113Z,3.71
2018-03-15T02:33:35.203Z,3.68
2018-03-15T02:34:38.692Z,3.66
2018-03-15T02:35:42.187Z,3.68
2018-03-15T02:36:46.353Z,3.67
2018-03-15T02:37:49.424Z,3.66
2018-03-15T02:38:52.777Z,3.64
2018-03-15T02:39:56.644Z,3.67
2018-03-15T02:41:00.109Z,3.70
2018-03-15T02:42:03.454Z,3.71
2018-03-15T02:43:06.792Z,3.77
2018-03-15T02:44:10.096Z,3.78
2018-03-15T02:45:13.434Z,3.73
2018-03-15T02:46:16.901Z,3.69
2018-03-15T02:47:20.288Z,3.72
2018-03-15T02:48:23.628Z,3.67
2018-03-15T02:49:27.118Z,3.62
2018-03-15T02:50:30.516Z,3.64
2018-03-15T02:51:33.778Z,3.65
2018-03-15T02:52:37.373Z,3.70
2018-03-15T02:53:40.890Z,3.72
2018-03-15T02:54:44.366Z,3.73
2018-03-15T02:55:47.884Z,3.70
2018-03-15T02:56:51.079Z,3.64
2018-03-15T02:57:54.393Z,3.61
2018-03-15T02:58:58.197Z,3.57
2018-03-15T03:00:01.545Z,3.59
2018-03-15T03:01:04.846Z,3.63
2018-03-15T03:02:08.219Z,3.64
2018-03-15T03:03:11.755Z,3.63
2018-03-15T03:04:15.198Z,3.57
2018-03-15T03:05:19.324Z,3.56
2018-03-15T03:06:22.795Z,3.58
2018-03-15T03:07:26.244Z,3.57
2018-03-15T03:08:29.576Z,3.54
2018-03-15T03:09:33.130Z,3.55
2018-03-15T03:10:36.528Z,3.54
2018-03-15T03:11:40.225Z,3.54
2018-03-15T03:12:43.509Z,3.47
2018-03-15T03:13:46.873Z,3.50
2018-03-15T03:14:50.138Z,3.52
2018-03-15T03:15:53.298Z,3.52
2018-03-15T03:16:56.648Z,3.51
2018-03-15T03:18:00.371Z,3.48
2018-03-15T03:19:03.739Z,3.47
2018-03-15T03:20:06.976Z,3.47
2018-03-15T03:21:10.445Z,3.43
2018-03-15T03:22:13.824Z,3.43
2018-03-15T03:23:17.214Z,3.45
2018-03-15T03:24:20.948Z,3.44
2018-03-15T03:25:24.181Z,3.43
2018-03-15T03:26:27.494Z,3.44
2018-03-15T03:27:30.899Z,3.42
2018-03-15T03:28:34.022Z,3.40
2018-03-15T03:29:37.312Z,3.44
2018-03-15T03:30:40.951Z,3.45
2018-03-15T03:31:44.257Z,3.45
2018-03-15T03:32:47.765Z,3.44
2018-03-15T03:33:51.340Z,3.43
2018-03-15T03:34:54.614Z,3.46
2018-03-15T03:35:58.164Z,3.47
2018-03-15T03:37:02.002Z,3.48
2018-03-15T03:38:05.501Z,3.44
2018-03-15T03:39:08.869Z,3.43
2018-03-15T03:40:12.231Z,3.39
2018-03-15T03:41:16.241Z,3.37
2018-03-15T03:42:19.770Z,3.40
2018-03-15T03:43:23.543Z,3.41
2018-03-15T03:44:26.942Z,3.39
2018-03-15T03:45:30.434Z,3.41
2018-03-15T03:46:33.895Z,3.42
2018-03-15T03:47:37.158Z,3.42
2018-03-15T03:48:40.479Z,3.37
2018-03-15T03:49:44.096Z,3.36
2018-03-15T03:50:47.440Z,3.36
2018-03-15T03:51:50.538Z,3.34
2018-03-15T03:52:53.697Z,3.36
2018-03-15T03:53:56.844Z,3.42
2018-03-15T03:55:00.094Z,3.43
2018-03-15T03:56:03.635Z,3.42
2018-03-15T03:57:06.851Z,3.39
2018-03-15T03:58:10.271Z,3.38
2018-03-15T03:59:13.625Z,3.34
2018-03-15T04:00:16.878Z,3.36
2018-03-15T04:01:20.381Z,3.42
2018-03-15T04:02:24.078Z,3.47
2018-03-15T04:03:27.232Z,3.42
2018-03-15T04:04:30.554Z,3.45
2018-03-15T04:05:33.840Z,3.45
2018-03-15T04:06:37.102Z,3.45
2018-03-15T04:07:40.324Z,3.47
2018-03-15T04:08:44.064Z,3.44
2018-03-15T04:09:47.429Z,3.39
2018-03-15T04:10:50.653Z,3.35
2018-03-15T04:11:54.203Z,3.38
2018-03-15T04:12:57.445Z,3.39
2018-03-15T04:14:00.527Z,3.38
2018-03-15T04:15:04.312Z,3.34
2018-03-15T04:16:07.440Z,3.32
2018-03-15T04:17:10.611Z,3.25
2018-03-15T04:18:14.141Z,3.24
2018-03-15T04:19:17.351Z,3.30
2018-03-15T04:20:20.499Z,3.30
2018-03-15T04:21:23.704Z,3.29
2018-03-15T04:22:26.915Z,3.28
2018-03-15T04:23:30.178Z,3.28
2018-03-15T04:24:33.312Z,3.31
2018-03-15T04:25:36.653Z,3.31
2018-03-15T04:26:40.288Z,3.30
2018-03-15T04:27:43.353Z,3.29
2018-03-15T04:28:46.573Z,3.31
2018-03-15T04:29:49.856Z,3.35
2018-03-15T04:30:53.406Z,3.38
2018-03-15T04:31:56.573Z,3.37
2018-03-15T04:33:00.186Z,3.33
2018-03-15T04:34:03.817Z,3.34
2018-03-15T04:35:07.366Z,3.30
2018-03-15T04:36:10.678Z,3.30
2018-03-15T04:37:13.855Z,3.32
2018-03-15T04:38:17.211Z,3.30
2018-03-15T04:39:20.736Z,3.29
2018-03-15T04:40:24.156Z,3.31
2018-03-15T04:41:27.435Z,3.32
2018-03-15T04:42:31.231Z,3.29
2018-03-15T04:43:34.620Z,3.32
2018-03-15T04:44:37.858Z,3.26
2018-03-15T04:45:41.698Z,3.24
2018-03-15T04:46:45.126Z,3.25
2018-03-15T04:47:48.247Z,3.24
2018-03-15T04:48:51.685Z,3.19
2018-03-15T04:49:55.023Z,3.19
2018-03-15T04:50:58.326Z,3.17
2018-03-15T04:52:02.167Z,3.17
2018-03-15T04:53:05.689Z,3.16
2018-03-15T04:54:09.028Z,3.18
2018-03-15T04:55:12.449Z,3.21
2018-03-15T04:56:16.085Z,3.21
2018-03-15T04:57:19.599Z,3.19
2018-03-15T04:58:23.135Z,3.20
2018-03-15T04:59:26.503Z,3.16
2018-03-15T05:00:30.079Z,3.13
2018-03-15T05:01:33.601Z,3.16
2018-03-15T05:02:37.043Z,3.16
2018-03-15T05:03:40.411Z,3.16
2018-03-15T05:04:44.195Z,3.15
2018-03-15T05:05:47.412Z,3.11
2018-03-15T05:06:50.729Z,3.06
2018-03-15T05:07:54.151Z,3.04
2018-03-15T05:08:57.646Z,3.02
2018-03-15T05:10:00.966Z,3.02
2018-03-15T05:11:04.646Z,3.01
2018-03-15T05:12:08.104Z,3.01
2018-03-15T05:13:11.744Z,3.02
2018-03-15T05:14:15.342Z,2.97
2018-03-15T05:15:18.944Z,2.93
2018-03-15T05:16:22.573Z,2.96
2018-03-15T05:17:28.004Z,2.92
2018-03-15T05:18:31.466Z,2.94
2018-03-15T05:19:35.143Z,2.98
2018-03-15T05:20:38.638Z,2.97
2018-03-15T05:21:42.213Z,2.98
2018-03-15T05:22:45.779Z,2.99
2018-03-15T05:23:49.570Z,3.00
2018-03-15T05:24:53.181Z,3.01
2018-03-15T05:25:57.434Z,2.99
2018-03-15T05:27:01.182Z,2.97
2018-03-15T05:28:04.752Z,2.97
2018-03-15T05:29:08.329Z,2.97
2018-03-15T05:30:11.715Z,3.00
2018-03-15T05:31:15.286Z,2.97
2018-03-15T05:32:19.028Z,2.99
2018-03-15T05:33:22.440Z,3.02
2018-03-15T05:34:26.118Z,3.04
2018-03-15T05:35:30.011Z,3.07
2018-03-15T05:36:33.593Z,3.08
2018-03-15T05:37:37.256Z,3.10
2018-03-15T05:38:40.618Z,3.10
2018-03-15T05:39:44.256Z,3.11
2018-03-15T05:40:47.900Z,3.11
2018-03-15T05:41:51.851Z,3.14
2018-03-15T05:42:55.673Z,3.14
2018-03-15T05:43:59.465Z,3.17
2018-03-15T05:45:03.295Z,3.18
2018-03-15T05:46:06.990Z,3.18
2018-03-15T05:47:10.554Z,3.17
2018-03-15T05:48:14.508Z,3.16
2018-03-15T05:49:17.953Z,3.14
2018-03-15T05:50:21.563Z,3.19
2018-03-15T05:51:25.241Z,3.17
2018-03-15T05:52:29.091Z,3.10
2018-03-15T05:53:32.636Z,3.09
2018-03-15T05:54:36.784Z,3.09
2018-03-15T05:55:40.329Z,3.08
2018-03-15T05:56:43.890Z,3.10
2018-03-15T05:57:47.581Z,3.09
2018-03-15T05:58:51.111Z,3.11
2018-03-15T05:59:54.740Z,3.09
2018-03-15T06:00:58.662Z,3.11
2018-03-15T06:02:02.221Z,3.13
2018-03-15T06:03:05.892Z,3.14
2018-03-15T06:04:09.441Z,3.16
2018-03-15T06:05:12.937Z,3.21
2018-03-15T06:06:16.703Z,3.22
2018-03-15T06:07:20.608Z,3.26
2018-03-15T06:08:24.182Z,3.23
2018-03-15T06:09:27.732Z,3.22
2018-03-15T06:10:31.303Z,3.23
2018-03-15T06:11:34.831Z,3.26
2018-03-15T06:12:38.387Z,3.29
2018-03-15T06:13:42.364Z,3.32
2018-03-15T06:14:46.007Z,3.34
2018-03-15T06:15:49.572Z,3.36
2018-03-15T06:16:53.209Z,3.38
2018-03-15T06:17:57.861Z,3.39
2018-03-15T06:19:01.507Z,3.42
2018-03-15T06:20:05.379Z,3.43
2018-03-15T06:21:08.817Z,3.42
2018-03-15T06:22:12.373Z,3.41
2018-03-15T06:23:15.899Z,3.45
2018-03-15T06:24:19.440Z,3.46
2018-03-15T06:25:23.069Z,3.50
2018-03-15T06:26:26.866Z,3.53
2018-03-15T06:27:30.655Z,3.55
2018-03-15T06:28:34.166Z,3.65
2018-03-15T06:29:37.649Z,3.67
2018-03-15T06:30:41.248Z,3.73
2018-03-15T06:31:44.878Z,3.81
2018-03-15T06:32:49.032Z,4.04
2018-03-15T06:33:52.651Z,4.52
2018-03-15T06:34:56.414Z,5.10
2018-03-15T06:35:59.834Z,5.59
2018-03-15T06:37:03.352Z,5.33
2018-03-15T06:38:06.867Z,5.14
2018-03-15T06:39:10.994Z,5.19
2018-03-15T06:40:14.963Z,5.29
2018-03-15T06:41:18.474Z,5.08
2018-03-15T06:42:22.199Z,4.67
2018-03-15T06:43:25.840Z,4.55
2018-03-15T06:44:29.219Z,4.52
2018-03-15T06:45:33.088Z,4.56
2018-03-15T06:46:36.706Z,4.73
2018-03-15T06:47:40.132Z,4.90
2018-03-15T06:48:43.650Z,5.34
2018-03-15T06:49:47.100Z,5.68
2018-03-15T06:50:50.642Z,6.02
2018-03-15T06:51:54.608Z,6.20
2018-03-15T06:52:58.289Z,6.34
2018-03-15T06:54:01.775Z,6.39
2018-03-15T06:55:05.226Z,6.86
2018-03-15T06:56:08.668Z,7.02
2018-03-15T06:57:12.185Z,6.66
2018-03-15T06:58:16.181Z,6.36
2018-03-15T06:59:19.703Z,6.70
2018-03-15T07:00:23.180Z,6.50
2018-03-15T07:01:26.685Z,6.47
2018-03-15T07:02:30.148Z,6.30
2018-03-15T07:03:34.510Z,6.51
2018-03-15T07:04:38.493Z,6.96
2018-03-15T07:05:41.962Z,6.94
2018-03-15T07:06:46.721Z,6.77
2018-03-15T07:07:50.054Z,6.64
2018-03-15T07:08:53.455Z,7.04
2018-03-15T07:09:57.117Z,7.62
2018-03-15T07:11:00.946Z,7.88
2018-03-15T07:12:04.731Z,7.33
2018-03-15T07:13:08.373Z,6.89
2018-03-15T07:14:11.961Z,6.66
2018-03-15T07:15:15.370Z,7.00
2018-03-15T07:16:18.937Z,7.33
2018-03-15T07:17:22.946Z,7.15
2018-03-15T07:18:26.457Z,7.16
2018-03-15T07:19:29.920Z,7.12
2018-03-15T07:20:33.393Z,6.95
2018-03-15T07:21:36.878Z,6.77
2018-03-15T07:22:40.354Z,6.23
2018-03-15T07:23:44.433Z,6.23
2018-03-15T07:24:47.854Z,6.37
2018-03-15T07:25:51.427Z,6.06
2018-03-15T07:26:54.870Z,5.87
2018-03-15T07:27:58.280Z,5.93
2018-03-15T07:29:01.903Z,5.80
2018-03-15T07:30:05.536Z,5.75
2018-03-15T07:31:08.968Z,5.77
2018-03-15T07:32:12.564Z,6.09
2018-03-15T07:33:15.955Z,6.39
2018-03-15T07:34:19.389Z,6.68
2018-03-15T07:35:22.816Z,6.74
2018-03-15T07:36:26.766Z,6.66
2018-03-15T07:37:30.186Z,6.66
2018-03-15T07:38:33.810Z,6.97
2018-03-15T07:39:37.220Z,7.17
2018-03-15T07:40:40.619Z,7.63
2018-03-15T07:41:44.142Z,7.71
2018-03-15T07:42:48.358Z,7.59
2018-03-15T07:43:51.844Z,7.21
2018-03-15T07:44:55.357Z,7.34
2018-03-15T07:45:58.796Z,7.82
2018-03-15T07:47:02.280Z,7.73
2018-03-15T07:48:05.734Z,7.73
2018-03-15T07:49:09.658Z,7.03
2018-03-15T07:50:13.114Z,6.68
2018-03-15T07:51:16.707Z,6.30
2018-03-15T07:52:20.114Z,5.87
2018-03-15T07:53:23.704Z,5.53
2018-03-15T07:54:27.178Z,5.28
2018-03-15T07:55:31.160Z,5.23
2018-03-15T07:56:34.671Z,5.22
2018-03-15T07:57:38.136Z,5.21
2018-03-15T07:58:41.646Z,5.25
2018-03-15T07:59:45.229Z,5.30
2018-03-15T08:00:48.783Z,5.28
2018-03-15T08:01:52.652Z,5.39
2018-03-15T08:02:56.200Z,5.37
2018-03-15T08:03:59.571Z,5.35
2018-03-15T08:05:03.103Z,5.47
2018-03-15T08:06:06.533Z,5.64
2018-03-15T08:07:10.056Z,5.86
2018-03-15T08:08:13.997Z,6.14
2018-03-15T08:09:17.955Z,6.41
2018-03-15T08:10:21.479Z,6.87
2018-03-15T08:11:25.037Z,7.17
2018-03-15T08:12:30.102Z,7.42
2018-03-15T08:13:34.010Z,7.47
2018-03-15T08:14:38.617Z,7.61
2018-03-15T08:15:42.128Z,7.65
2018-03-15T08:16:45.645Z,7.61
2018-03-15T08:17:49.018Z,7.55
2018-03-15T08:18:52.386Z,7.75
2018-03-15T08:19:55.773Z,7.97
2018-03-15T08:20:59.635Z,8.13
2018-03-15T08:22:04.735Z,8.12
2018-03-15T08:23:09.031Z,8.13
2018-03-15T08:24:13.880Z,8.03
2018-03-15T08:25:19.399Z,8.27
2018-03-15T08:26:24.102Z,8.47
2018-03-15T08:27:28.571Z,8.48
2018-03-15T08:28:31.996Z,8.32
2018-03-15T08:29:35.389Z,8.31
2018-03-15T08:30:38.798Z,8.48
2018-03-15T08:31:42.201Z,8.74
2018-03-15T08:32:46.223Z,8.71
2018-03-15T08:33:50.022Z,8.69
2018-03-15T08:34:53.342Z,8.49
2018-03-15T08:35:56.787Z,8.11
2018-03-15T08:37:00.102Z,7.92
2018-03-15T08:38:03.457Z,7.70
2018-03-15T08:39:06.913Z,7.62
2018-03-15T08:40:10.864Z,7.59
2018-03-15T08:41:14.210Z,7.75
2018-03-15T08:42:17.634Z,8.07
2018-03-15T08:43:22.002Z,7.96
2018-03-15T08:44:25.459Z,7.96
2018-03-15T08:45:28.965Z,7.87
2018-03-15T08:46:32.761Z,7.80
2018-03-15T08:47:36.156Z,7.87
2018-03-15T08:48:39.422Z,7.88
2018-03-15T08:49:42.920Z,7.92
2018-03-15T08:50:46.368Z,8.18
2018-03-15T08:51:49.836Z,8.38
2018-03-15T08:52:53.612Z,8.34
2018-03-15T08:53:56.988Z,8.21
2018-03-15T08:55:00.453Z,8.23
2018-03-15T08:56:03.874Z,8.29
2018-03-15T08:57:07.351Z,8.12
2018-03-15T08:58:10.753Z,7.87
2018-03-15T08:59:14.502Z,7.82
2018-03-15T09:00:17.970Z,7.90
2018-03-15T09:01:21.332Z,7.83
2018-03-15T09:02:24.877Z,7.87
2018-03-15T09:03:28.221Z,8.04
2018-03-15T09:04:31.647Z,8.10
2018-03-15T09:05:35.301Z,8.22
2018-03-15T09:06:38.790Z,8.13
2018-03-15T09:07:42.228Z,8.21
2018-03-15T09:08:45.532Z,8.29
2018-03-15T09:09:49.032Z,8.29
2018-03-15T09:10:52.484Z,8.19
2018-03-15T09:11:56.125Z,8.14
2018-03-15T09:12:59.513Z,8.33
2018-03-15T09:14:02.784Z,8.58
2018-03-15T09:15:06.119Z,8.35
2018-03-15T09:16:09.920Z,8.46
2018-03-15T09:17:13.314Z,8.57
2018-03-15T09:18:16.769Z,8.68
2018-03-15T09:19:20.342Z,8.88
2018-03-15T09:20:23.804Z,9.08
2018-03-15T09:21:27.396Z,9.29
2018-03-15T09:22:31.379Z,9.29
2018-03-15T09:23:35.751Z,9.21
2018-03-15T09:24:39.342Z,8.98
2018-03-15T09:25:42.648Z,9.07
2018-03-15T09:26:46.127Z,9.11
2018-03-15T09:27:49.594Z,9.23
2018-03-15T09:28:53.306Z,9.36
2018-03-15T09:29:56.724Z,9.63
2018-03-15T09:31:00.361Z,9.77
2018-03-15T09:32:04.375Z,9.70
2018-03-15T09:33:07.768Z,9.68
2018-03-15T09:34:11.245Z,9.63
2018-03-15T09:35:14.970Z,9.61
2018-03-15T09:36:18.565Z,9.79
2018-03-15T09:37:21.984Z,9.68
2018-03-15T09:38:25.412Z,9.70
2018-03-15T09:39:28.893Z,9.67
2018-03-15T09:40:32.399Z,9.50
2018-03-15T09:41:36.023Z,9.38
2018-03-15T09:42:39.376Z,9.40
2018-03-15T09:43:43.177Z,9.65
2018-03-15T09:44:46.645Z,9.75
2018-03-15T09:45:49.998Z,10.05
2018-03-15T09:46:53.448Z,10.28
2018-03-15T09:47:57.231Z,10.07
2018-03-15T09:49:00.617Z,9.75
2018-03-15T09:50:03.927Z,9.75
2018-03-15T09:51:07.393Z,9.78
2018-03-15T09:52:10.884Z,9.88
2018-03-15T09:53:14.350Z,10.21
2018-03-15T09:54:18.069Z,10.29
2018-03-15T09:55:21.504Z,10.31
2018-03-15T09:56:24.923Z,10.36
2018-03-15T09:57:28.314Z,10.42
2018-03-15T09:58:31.693Z,10.39
2018-03-15T09:59:41.807Z,10.54
2018-03-15T10:00:45.319Z,10.61
2018-03-15T10:01:48.705Z,10.76
2018-03-15T10:02:52.090Z,10.53
2018-03-15T10:03:55.666Z,10.40
2018-03-15T10:04:59.143Z,10.56
2018-03-15T10:06:02.963Z,10.57
2018-03-15T10:07:06.450Z,10.42
2018-03-15T10:08:10.021Z,10.38
2018-03-15T10:09:13.447Z,10.33
2018-03-15T10:10:16.979Z,9.98
2018-03-15T10:11:20.412Z,9.66
2018-03-15T10:12:24.132Z,9.41
2018-03-15T10:13:27.464Z,9.44
2018-03-15T10:14:31.047Z,9.56
2018-03-15T10:15:34.476Z,9.97
2018-03-15T10:16:38.773Z,9.94
2018-03-15T10:17:42.116Z,9.62
2018-03-15T10:18:46.114Z,9.49
2018-03-15T10:19:49.564Z,9.49
2018-03-15T10:20:52.973Z,9.44
2018-03-15T10:21:56.281Z,9.37
2018-03-15T10:22:59.647Z,9.35
2018-03-15T10:24:03.036Z,9.34
2018-03-15T10:25:13.767Z,9.40
2018-03-15T10:26:10.297Z,9.46
2018-03-15T10:27:17.538Z,9.50
2018-03-15T10:28:20.871Z,9.45
2018-03-15T10:29:24.229Z,9.45
2018-03-15T10:30:27.635Z,9.50
2018-03-15T10:31:31.416Z,9.25
2018-03-15T10:32:34.742Z,9.26
2018-03-15T10:33:39.891Z,9.49
2018-03-15T10:34:43.501Z,9.79
2018-03-15T10:35:46.966Z,10.04
2018-03-15T10:36:50.793Z,10.01
2018-03-15T10:37:54.101Z,9.69
2018-03-15T10:38:57.482Z,9.42
2018-03-15T10:40:00.837Z,9.26
2018-03-15T10:41:04.269Z,9.31
2018-03-15T10:42:07.623Z,9.32
2018-03-15T10:43:11.432Z,9.34
2018-03-15T10:44:14.849Z,9.63
2018-03-15T10:45:18.238Z,9.89
2018-03-15T10:46:21.711Z,10.27
2018-03-15T10:47:25.045Z,10.63
2018-03-15T10:48:28.468Z,10.96
2018-03-15T10:49:32.151Z,10.86
2018-03-15T10:50:35.464Z,10.66
2018-03-15T10:51:38.865Z,10.71
2018-03-15T10:52:42.222Z,10.48
2018-03-15T10:53:45.527Z,10.33
2018-03-15T10:54:48.841Z,10.20
2018-03-15T10:55:52.521Z,10.26
2018-03-15T10:56:56.066Z,10.22
2018-03-15T10:57:59.554Z,9.90
2018-03-15T10:59:03.084Z,9.86
2018-03-15T11:00:06.495Z,10.10
2018-03-15T11:01:10.054Z,10.06
2018-03-15T11:02:17.223Z,9.88
2018-03-15T11:03:24.392Z,10.05
2018-03-15T11:04:31.502Z,10.20
2018-03-15T11:05:38.629Z,10.36
2018-03-15T11:06:43.008Z,10.39
2018-03-15T11:07:50.272Z,10.41
2018-03-15T11:08:57.300Z,10.47
2018-03-15T11:10:00.602Z,10.52
2018-03-15T11:11:04.017Z,10.51
2018-03-15T11:12:07.501Z,10.41
2018-03-15T11:13:11.240Z,10.59
2018-03-15T11:14:14.535Z,10.58
2018-03-15T11:15:17.834Z,10.66
2018-03-15T11:16:21.153Z,10.97
2018-03-15T11:17:24.497Z,10.92
2018-03-15T11:18:27.787Z,10.86
2018-03-15T11:19:31.481Z,10.86
2018-03-15T11:20:34.757Z,10.67
2018-03-15T11:21:38.125Z,10.51
2018-03-15T11:22:41.388Z,10.52
2018-03-15T11:23:44.641Z,10.35
2018-03-15T11:24:47.933Z,9.93
2018-03-15T11:25:51.594Z,9.86
2018-03-15T11:26:55.874Z,9.68
2018-03-15T11:27:59.050Z,9.77
2018-03-15T11:29:02.338Z,9.99
2018-03-15T11:30:05.679Z,10.06
2018-03-15T11:31:09.037Z,10.15
2018-03-15T11:32:12.721Z,10.19
2018-03-15T11:33:16.005Z,10.30
2018-03-15T11:34:19.290Z,10.30
2018-03-15T11:35:22.576Z,10.03
2018-03-15T11:36:25.844Z,9.80
2018-03-15T11:37:29.186Z,9.77
2018-03-15T11:38:33.568Z,9.75
2018-03-15T11:39:37.545Z,9.81
2018-03-15T11:40:41.024Z,9.97
2018-03-15T11:41:44.820Z,10.10
2018-03-15T11:42:50.280Z,10.02
2018-03-15T11:43:54.022Z,10.10
2018-03-15T11:44:57.803Z,10.07
2018-03-15T11:46:01.899Z,9.99
2018-03-15T11:47:06.113Z,10.04
2018-03-15T11:48:09.859Z,9.99
2018-03-15T11:49:13.597Z,9.93
2018-03-15T11:50:17.292Z,10.01
2018-03-15T11:51:21.057Z,10.04
2018-03-15T11:52:24.422Z,10.03
2018-03-15T11:53:28.139Z,10.20
2018-03-15T11:54:31.258Z,10.29
2018-03-15T11:55:34.411Z,10.43
2018-03-15T11:56:37.516Z,10.44
2018-03-15T11:57:41.203Z,10.32
2018-03-15T11:58:44.452Z,10.42
2018-03-15T11:59:47.889Z,10.38
2018-03-15T12:00:51.230Z,10.30
2018-03-15T12:01:54.412Z,10.25
2018-03-15T12:02:57.649Z,10.25
2018-03-15T12:04:01.426Z,10.28
2018-03-15T12:05:04.713Z,10.34
2018-03-15T12:06:08.082Z,10.34
2018-03-15T12:07:12.197Z,10.36
2018-03-15T12:08:15.463Z,10.31
2018-03-15T12:09:18.759Z,10.35
2018-03-15T12:10:22.733Z,10.34
2018-03-15T12:11:26.928Z,10.52
2018-03-15T12:12:30.329Z,10.63
2018-03-15T12:13:33.593Z,10.70
2018-03-15T12:14:37.175Z,10.68
2018-03-15T12:15:40.361Z,10.80
2018-03-15T12:16:44.005Z,10.85
2018-03-15T12:17:47.264Z,10.93
2018-03-15T12:18:50.400Z,10.98
2018-03-15T12:19:53.609Z,10.99
2018-03-15T12:20:56.900Z,10.88
2018-03-15T12:22:00.160Z,10.82
2018-03-15T12:23:04.009Z,10.98
2018-03-15T12:24:07.235Z,11.18
2018-03-15T12:25:10.620Z,11.30
2018-03-15T12:26:13.838Z,11.29
2018-03-15T12:27:17.163Z,11.44
2018-03-15T12:28:21.501Z,11.36
2018-03-15T12:29:25.190Z,11.37
2018-03-15T12:30:28.465Z,11.27
2018-03-15T12:31:31.709Z,11.19
2018-03-15T12:32:34.910Z,10.99
2018-03-15T12:33:38.168Z,10.91
2018-03-15T12:34:41.979Z,11.01
2018-03-15T12:35:45.812Z,11.06
2018-03-15T12:36:49.121Z,11.13
2018-03-15T12:37:52.306Z,11.24
2018-03-15T12:38:55.500Z,11.28
2018-03-15T12:39:58.778Z,11.31
2018-03-15T12:41:02.000Z,11.37
2018-03-15T12:42:05.611Z,11.47
2018-03-15T12:43:08.805Z,11.45
2018-03-15T12:44:12.712Z,11.53
2018-03-15T12:45:15.880Z,11.66
2018-03-15T12:46:19.322Z,11.66
2018-03-15T12:47:22.687Z,11.36
2018-03-15T12:48:26.406Z,11.06
2018-03-15T12:49:29.683Z,10.88
2018-03-15T12:50:33.011Z,10.81
2018-03-15T12:51:36.190Z,10.76
2018-03-15T12:52:39.473Z,10.83
2018-03-15T12:53:42.699Z,10.91
2018-03-15T12:54:46.360Z,10.93
2018-03-15T12:55:49.557Z,10.75
2018-03-15T12:56:52.787Z,10.64
2018-03-15T12:57:56.036Z,10.62
2018-03-15T12:59:00.260Z,10.61
2018-03-15T13:00:03.464Z,10.65
2018-03-15T13:01:07.732Z,10.70
2018-03-15T13:02:11.068Z,10.65
2018-03-15T13:03:14.433Z,10.65
2018-03-15T13:04:17.689Z,10.65
2018-03-15T13:05:20.984Z,10.74
2018-03-15T13:06:24.253Z,10.71
2018-03-15T13:07:27.794Z,10.73
2018-03-15T13:08:31.178Z,10.81
2018-03-15T13:09:35.395Z,10.85
2018-03-15T13:10:39.550Z,10.91
2018-03-15T13:11:42.788Z,10.97
2018-03-15T13:12:46.179Z,10.96
2018-03-15T13:13:49.799Z,10.81
2018-03-15T13:14:53.043Z,10.72
2018-03-15T13:15:56.241Z,10.82
2018-03-15T13:17:00.914Z,10.89
2018-03-15T13:18:05.475Z,10.85
2018-03-15T13:19:09.549Z,10.75
2018-03-15T13:20:13.413Z,10.66
2018-03-15T13:21:16.675Z,10.67
2018-03-15T13:22:19.920Z,10.68
2018-03-15T13:23:23.197Z,10.62
2018-03-15T13:24:26.510Z,10.53
2018-03-15T13:25:29.854Z,10.49
2018-03-15T13:26:33.534Z,10.52
2018-03-15T13:27:36.745Z,10.61
2018-03-15T13:28:40.022Z,10.64
2018-03-15T13:29:43.234Z,10.55
2018-03-15T13:30:47.802Z,10.56
2018-03-15T13:31:51.506Z,10.52
2018-03-15T13:32:55.225Z,10.56
2018-03-15T13:33:58.524Z,10.56
2018-03-15T13:35:03.090Z,10.57
2018-03-15T13:36:07.453Z,10.56
2018-03-15T13:37:10.789Z,10.55
2018-03-15T13:38:14.418Z,10.54
2018-03-15T13:39:17.913Z,10.60
2018-03-15T13:40:21.235Z,10.66
2018-03-15T13:41:24.445Z,10.61
2018-03-15T13:42:27.676Z,10.57
2018-03-15T13:43:32.181Z,10.50
2018-03-15T13:44:37.596Z,10.48
2018-03-15T13:45:42.318Z,10.51
2018-03-15T13:46:45.912Z,10.51
2018-03-15T13:47:49.739Z,10.47
2018-03-15T13:48:53.040Z,10.46
2018-03-15T13:49:57.177Z,10.48
2018-03-15T13:51:00.760Z,10.44
2018-03-15T13:52:04.088Z,10.47
2018-03-15T13:53:08.084Z,10.43
2018-03-15T13:54:13.768Z,10.38
2018-03-15T13:55:18.533Z,10.33
2018-03-15T13:56:22.748Z,10.32
2018-03-15T13:57:27.795Z,10.33
2018-03-15T13:58:32.370Z,10.33
2018-03-15T13:59:36.610Z,10.37
2018-03-15T14:00:42.759Z,10.35